createdAt,value
2019-02-12T00:00:22.681Z,18.70
2019-02-12T00:02:51.053Z,16.13
2019-02-12T00:05:19.349Z,20.87
2019-02-12T00:07:47.671Z,37.97
2019-02-12T00:10:18.920Z,41.47
2019-02-12T00:12:47.467Z,46.63
2019-02-12T00:15:16.011Z,41.47
2019-02-12T00:17:44.377Z,49.53
2019-02-12T00:20:12.929Z,40.23
2019-02-12T00:22:41.216Z,33.30
2019-02-12T00:25:17.471Z,23.20
2019-02-12T00:27:45.758Z,27.43
2019-02-12T00:30:14.138Z,29.40
2019-02-12T00:32:42.426Z,24.77
2019-02-12T00:35:11.030Z,32.27
2019-02-12T00:37:39.323Z,22.27
2019-02-12T00:40:09.154Z,16.53
2019-02-12T00:42:37.468Z,22.57
2019-02-12T00:45:08.422Z,17.57
2019-02-12T00:47:36.716Z,18.00
2019-02-12T00:50:07.915Z,19.63
2019-02-12T00:52:36.376Z,19.73
2019-02-12T00:55:06.709Z,19.20
2019-02-12T00:57:35.108Z,17.27
2019-02-12T01:00:05.046Z,19.47
2019-02-12T01:02:33.357Z,21.43
2019-02-12T01:05:01.667Z,22.70
2019-02-12T01:07:29.960Z,17.83
2019-02-12T01:09:58.244Z,17.47
2019-02-12T01:12:26.570Z,22.00
2019-02-12T01:14:54.862Z,15.53
2019-02-12T01:17:23.179Z,13.77
2019-02-12T01:19:51.744Z,18.73
2019-02-12T01:22:20.057Z,14.90
2019-02-12T01:24:48.381Z,15.17
2019-02-12T01:27:16.674Z,13.83
2019-02-12T01:29:44.980Z,16.47
2019-02-12T01:32:13.273Z,15.40
2019-02-12T01:34:41.587Z,18.03
2019-02-12T01:37:09.879Z,20.27
2019-02-12T01:39:38.177Z,13.17
2019-02-12T01:42:06.727Z,12.53
2019-02-12T01:44:35.030Z,16.33
2019-02-12T01:47:03.324Z,21.87
2019-02-12T01:49:31.644Z,19.63
2019-02-12T01:51:59.926Z,19.37
2019-02-12T01:54:28.229Z,17.07
2019-02-12T01:56:56.762Z,13.93
2019-02-12T01:59:25.296Z,14.07
2019-02-12T02:01:53.591Z,21.47
2019-02-12T02:04:22.160Z,17.03
2019-02-12T02:06:50.449Z,11.70
2019-02-12T02:09:18.757Z,14.50
2019-02-12T02:11:47.041Z,13.47
2019-02-12T02:14:15.333Z,13.70
2019-02-12T02:16:43.631Z,12.53
2019-02-12T02:19:11.926Z,12.37
2019-02-12T02:21:44.110Z,15.33
2019-02-12T02:24:10.477Z,14.17
2019-02-12T02:26:41.850Z,13.67
2019-02-12T02:29:10.133Z,18.13
2019-02-12T02:31:38.462Z,11.63
2019-02-12T02:34:06.752Z,10.57
2019-02-12T02:36:35.043Z,11.83
2019-02-12T02:39:04.404Z,13.13
2019-02-12T02:41:32.705Z,15.60
2019-02-12T02:44:00.969Z,16.87
2019-02-12T02:46:29.271Z,17.10
2019-02-12T02:48:57.562Z,11.10
2019-02-12T02:51:25.858Z,15.97
2019-02-12T02:53:54.134Z,18.97
2019-02-12T02:56:22.430Z,18.30
2019-02-12T02:58:50.723Z,10.67
2019-02-12T03:01:19.014Z,12.37
2019-02-12T03:03:47.291Z,15.80
2019-02-12T03:06:15.588Z,17.90
2019-02-12T03:08:44.139Z,19.50
2019-02-12T03:11:12.419Z,20.30
2019-02-12T03:13:40.719Z,12.37
2019-02-12T03:16:09.011Z,15.87
2019-02-12T03:18:37.295Z,9.87
2019-02-12T03:21:05.583Z,11.77
2019-02-12T03:23:33.897Z,11.20
2019-02-12T03:26:02.443Z,16.50
2019-02-12T03:28:30.812Z,14.77
2019-02-12T03:30:59.095Z,16.67
2019-02-12T03:33:27.400Z,15.70
2019-02-12T03:35:55.676Z,17.03
2019-02-12T03:38:23.981Z,10.87
2019-02-12T03:40:52.245Z,11.07
2019-02-12T03:43:20.542Z,13.53
2019-02-12T03:45:48.821Z,19.33
2019-02-12T03:48:17.120Z,15.73
2019-02-12T03:50:45.388Z,14.77
2019-02-12T03:53:13.665Z,17.23
2019-02-12T03:55:41.963Z,13.90
2019-02-12T03:58:10.244Z,21.07
2019-02-12T04:00:38.543Z,17.53
2019-02-12T04:03:08.073Z,15.77
2019-02-12T04:05:37.809Z,13.10
2019-02-12T04:08:06.319Z,17.13
2019-02-12T04:10:34.627Z,15.67
2019-02-12T04:13:02.979Z,14.80
2019-02-12T04:15:31.279Z,15.03
2019-02-12T04:17:59.876Z,19.10
2019-02-12T04:20:28.167Z,21.13
2019-02-12T04:22:56.444Z,14.67
2019-02-12T04:25:24.828Z,22.20
2019-02-12T04:27:55.284Z,16.80
2019-02-12T04:30:23.130Z,23.40
2019-02-12T04:32:51.436Z,25.07
2019-02-12T04:35:19.723Z,20.40
2019-02-12T04:37:48.031Z,20.57
2019-02-12T04:40:16.703Z,17.40
2019-02-12T04:42:45.019Z,19.47
2019-02-12T04:45:13.358Z,17.23
2019-02-12T04:47:41.660Z,19.57
2019-02-12T04:50:12.561Z,20.13
2019-02-12T04:52:40.858Z,14.80
2019-02-12T04:55:10.984Z,20.83
2019-02-12T04:57:39.297Z,21.20
2019-02-12T05:00:10.879Z,18.83
2019-02-12T05:02:39.182Z,22.37
2019-02-12T05:05:09.811Z,15.10
2019-02-12T05:07:38.175Z,17.03
2019-02-12T05:10:09.766Z,18.07
2019-02-12T05:12:38.065Z,21.23
2019-02-12T05:15:08.484Z,23.90
2019-02-12T05:17:36.786Z,20.00
2019-02-12T05:20:08.251Z,17.20
2019-02-12T05:22:43.190Z,15.97
2019-02-12T05:25:07.631Z,15.43
2019-02-12T05:27:36.179Z,16.63
2019-02-12T05:30:09.979Z,20.40
2019-02-12T05:32:38.273Z,18.93
2019-02-12T05:35:07.326Z,18.23
2019-02-12T05:37:35.873Z,27.00
2019-02-12T05:40:06.868Z,14.80
2019-02-12T05:42:35.153Z,15.67
2019-02-12T05:45:04.399Z,15.07
2019-02-12T05:47:32.699Z,12.33
2019-02-12T05:50:01.020Z,24.10
2019-02-12T05:52:30.853Z,18.63
2019-02-12T05:54:59.128Z,14.00
2019-02-12T05:57:27.439Z,15.93
2019-02-12T05:59:55.982Z,16.40
2019-02-12T06:02:24.290Z,16.33
2019-02-12T06:04:52.820Z,17.53
2019-02-12T06:07:21.381Z,17.07
2019-02-12T06:09:49.918Z,22.47
2019-02-12T06:12:18.259Z,16.10
2019-02-12T06:14:46.534Z,14.87
2019-02-12T06:17:14.858Z,19.60
2019-02-12T06:19:44.082Z,16.87
2019-02-12T06:22:12.360Z,21.47
2019-02-12T06:24:40.666Z,18.07
2019-02-12T06:27:08.946Z,18.43
2019-02-12T06:29:37.247Z,24.23
2019-02-12T06:32:05.520Z,20.60
2019-02-12T06:34:34.093Z,15.13
2019-02-12T06:37:02.379Z,16.17
2019-02-12T06:39:30.678Z,20.57
2019-02-12T06:41:58.965Z,20.73
2019-02-12T06:44:27.538Z,23.07
2019-02-12T06:46:55.825Z,15.67
2019-02-12T06:49:24.209Z,16.57
2019-02-12T06:51:52.561Z,19.13
2019-02-12T06:54:20.839Z,19.73
2019-02-12T06:56:49.115Z,18.07
2019-02-12T06:59:17.671Z,20.83
2019-02-12T07:01:46.282Z,20.07
2019-02-12T07:04:14.679Z,23.27
2019-02-12T07:06:46.164Z,23.87
2019-02-12T07:09:20.620Z,20.63
2019-02-12T07:11:52.079Z,23.00
2019-02-12T07:14:26.086Z,20.53
2019-02-12T07:17:30.914Z,21.23
2019-02-12T07:20:19.056Z,21.60
2019-02-12T07:22:53.438Z,18.93
2019-02-12T07:25:55.229Z,24.67
2019-02-12T07:28:29.429Z,35.20
2019-02-12T07:31:24.096Z,39.77
2019-02-12T07:34:25.353Z,28.67
2019-02-12T07:37:08.557Z,24.70
2019-02-12T07:40:01.177Z,18.70
2019-02-12T07:42:44.910Z,20.23
2019-02-12T07:45:19.085Z,19.63
2019-02-12T07:48:08.620Z,14.90
2019-02-12T07:50:56.568Z,24.47
2019-02-12T07:53:33.984Z,20.23
2019-02-12T07:56:14.228Z,24.73
2019-02-12T07:58:48.539Z,27.37
2019-02-12T08:01:28.789Z,22.03
2019-02-12T08:04:19.770Z,26.40
2019-02-12T08:07:00.163Z,24.50
2019-02-12T08:09:40.636Z,30.17
2019-02-12T08:12:24.164Z,23.93
2019-02-12T08:15:01.574Z,38.33
2019-02-12T08:17:48.101Z,26.53
2019-02-12T08:20:34.588Z,29.60
2019-02-12T08:23:27.202Z,33.20
2019-02-12T08:26:25.024Z,22.23
2019-02-12T08:29:07.873Z,24.70
2019-02-12T08:31:57.614Z,27.03
2019-02-12T08:34:48.141Z,29.47
2019-02-12T08:37:38.010Z,32.03
2019-02-12T08:40:25.984Z,22.67
2019-02-12T08:43:09.326Z,26.80
2019-02-12T08:45:49.766Z,27.70
2019-02-12T08:48:23.834Z,33.43
2019-02-12T08:51:29.533Z,28.67
2019-02-12T08:54:23.469Z,37.60
2019-02-12T08:56:54.928Z,29.60
2019-02-12T08:59:35.097Z,34.20
2019-02-12T09:02:18.070Z,28.73
2019-02-12T09:04:49.536Z,26.90
2019-02-12T09:07:21.003Z,24.43
2019-02-12T09:10:19.728Z,37.00
2019-02-12T09:13:12.446Z,34.93
2019-02-12T09:16:05.993Z,32.30
2019-02-12T09:18:59.787Z,26.27
2019-02-12T09:22:04.389Z,34.47
2019-02-12T09:25:07.994Z,27.83
2019-02-12T09:27:54.395Z,26.27
2019-02-12T09:30:25.853Z,24.93
2019-02-12T09:33:11.940Z,25.90
2019-02-12T09:36:02.455Z,27.00
2019-02-12T09:38:48.760Z,26.77
2019-02-12T09:41:25.993Z,29.17
2019-02-12T09:44:09.528Z,23.87
2019-02-12T09:47:12.777Z,25.70
2019-02-12T09:50:17.519Z,29.03
2019-02-12T09:53:20.713Z,20.07
2019-02-12T09:56:07.523Z,25.13
2019-02-12T09:58:59.619Z,30.13
2019-02-12T10:01:33.987Z,31.90
2019-02-12T10:04:35.300Z,25.27
2019-02-12T10:07:07.014Z,35.10
2019-02-12T10:09:44.472Z,25.03
2019-02-12T10:12:18.428Z,23.07
2019-02-12T10:15:07.610Z,30.67
2019-02-12T10:18:06.723Z,32.90
2019-02-12T10:20:59.216Z,28.30
2019-02-12T10:23:53.153Z,26.77
2019-02-12T10:26:27.591Z,27.67
2019-02-12T10:29:23.052Z,32.13
2019-02-12T10:31:50.307Z,26.90
2019-02-12T10:34:18.612Z,24.00
2019-02-12T10:36:46.894Z,27.50
2019-02-12T10:39:15.430Z,28.50
2019-02-12T10:41:43.972Z,23.47
2019-02-12T10:44:12.987Z,30.37
2019-02-12T10:46:41.288Z,28.27
2019-02-12T10:49:09.576Z,35.00
2019-02-12T10:51:37.874Z,29.10
2019-02-12T10:54:06.403Z,23.33
2019-02-12T10:56:34.715Z,33.50
2019-02-12T10:59:03.063Z,28.80
2019-02-12T11:01:31.701Z,28.87
2019-02-12T11:03:59.978Z,28.57
2019-02-12T11:06:28.282Z,30.47
2019-02-12T11:08:56.565Z,25.73
2019-02-12T11:11:24.864Z,28.47
2019-02-12T11:13:53.411Z,30.20
2019-02-12T11:16:21.720Z,28.07
2019-02-12T11:18:50.014Z,26.13
2019-02-12T11:21:18.330Z,24.50
2019-02-12T11:23:46.878Z,21.33
2019-02-12T11:26:15.285Z,23.47
2019-02-12T11:28:43.586Z,24.87
2019-02-12T11:31:11.923Z,23.03
2019-02-12T11:33:40.210Z,25.03
2019-02-12T11:36:08.514Z,24.13
2019-02-12T11:38:36.807Z,27.13
2019-02-12T11:41:05.174Z,24.63
2019-02-12T11:43:33.476Z,26.37
2019-02-12T11:46:01.771Z,18.30
2019-02-12T11:48:30.100Z,22.03
2019-02-12T11:50:58.628Z,27.70
2019-02-12T11:53:28.097Z,23.20
2019-02-12T11:55:56.961Z,27.03
2019-02-12T11:58:25.297Z,19.43
2019-02-12T12:00:55.216Z,18.87
2019-02-12T12:03:23.545Z,19.43
2019-02-12T12:05:51.849Z,21.13
2019-02-12T12:08:20.195Z,24.30
2019-02-12T12:10:48.473Z,25.77
2019-02-12T12:13:16.757Z,23.27
2019-02-12T12:15:45.133Z,26.37
2019-02-12T12:18:13.486Z,20.23
2019-02-12T12:20:42.064Z,21.13
2019-02-12T12:23:10.347Z,19.53
2019-02-12T12:25:38.741Z,25.67
2019-02-12T12:28:07.080Z,24.80
2019-02-12T12:30:35.381Z,21.50
2019-02-12T12:33:05.208Z,13.93
2019-02-12T12:35:33.525Z,21.30
2019-02-12T12:38:01.807Z,25.07
2019-02-12T12:40:30.103Z,24.83
2019-02-12T12:42:58.387Z,21.77
2019-02-12T12:45:26.686Z,17.33
2019-02-12T12:47:54.979Z,22.90
2019-02-12T12:50:23.280Z,29.00
2019-02-12T12:52:52.707Z,21.53
2019-02-12T12:55:21.008Z,18.23
2019-02-12T12:57:49.302Z,24.73
2019-02-12T13:00:17.757Z,20.43
2019-02-12T13:02:46.141Z,20.13
2019-02-12T13:05:14.430Z,27.03
2019-02-12T13:07:42.986Z,20.03
2019-02-12T13:10:13.402Z,22.90
2019-02-12T13:12:41.727Z,23.73
2019-02-12T13:15:12.249Z,21.17
2019-02-12T13:17:40.545Z,17.43
2019-02-12T13:20:14.586Z,13.90
2019-02-12T13:22:42.918Z,15.57
2019-02-12T13:25:11.668Z,17.27
2019-02-12T13:27:40.644Z,18.77
2019-02-12T13:30:14.925Z,14.83
2019-02-12T13:32:43.233Z,12.33
2019-02-12T13:35:11.988Z,10.33
2019-02-12T13:37:40.695Z,13.67
2019-02-12T13:40:11.226Z,15.70
2019-02-12T13:42:39.638Z,9.87
2019-02-12T13:45:13.743Z,11.60
2019-02-12T13:47:41.960Z,9.77
2019-02-12T13:50:11.494Z,14.43
2019-02-12T13:52:40.060Z,14.60
2019-02-12T13:55:17.012Z,15.17
2019-02-12T13:57:39.599Z,9.97
2019-02-12T14:00:10.966Z,11.70
2019-02-12T14:02:39.601Z,16.30
2019-02-12T14:05:13.981Z,12.80
2019-02-12T14:07:42.267Z,10.80
2019-02-12T14:10:10.620Z,11.50
2019-02-12T14:12:38.915Z,10.63
2019-02-12T14:15:10.608Z,15.30
2019-02-12T14:17:38.898Z,10.43
2019-02-12T14:20:12.467Z,14.00
2019-02-12T14:22:40.746Z,11.77
2019-02-12T14:25:12.207Z,10.43
2019-02-12T14:27:40.502Z,9.13
2019-02-12T14:30:12.531Z,9.30
2019-02-12T14:32:40.829Z,17.23
2019-02-12T14:35:11.149Z,12.00
2019-02-12T14:37:39.445Z,10.73
2019-02-12T14:40:12.495Z,13.23
2019-02-12T14:42:41.035Z,13.60
2019-02-12T14:45:16.728Z,10.10
2019-02-12T14:47:45.021Z,9.20
2019-02-12T14:50:20.496Z,12.73
2019-02-12T14:52:48.792Z,7.83
2019-02-12T14:55:17.060Z,6.57
2019-02-12T14:57:45.376Z,10.87
2019-02-12T15:00:16.137Z,10.63
2019-02-12T15:02:44.405Z,9.60
2019-02-12T15:05:12.972Z,9.47
2019-02-12T15:07:41.256Z,10.00
2019-02-12T15:10:12.128Z,9.13
2019-02-12T15:12:40.719Z,11.20
2019-02-12T15:15:10.453Z,6.40
2019-02-12T15:17:39.100Z,7.90
2019-02-12T15:20:12.141Z,11.77
2019-02-12T15:22:40.428Z,13.87
2019-02-12T15:25:10.170Z,11.33
2019-02-12T15:27:38.716Z,7.47
2019-02-12T15:30:10.779Z,9.67
2019-02-12T15:32:39.064Z,11.27
2019-02-12T15:35:09.204Z,9.33
2019-02-12T15:37:37.484Z,5.70
2019-02-12T15:40:08.882Z,9.73
2019-02-12T15:42:37.209Z,10.20
2019-02-12T15:45:08.954Z,6.47
2019-02-12T15:47:37.399Z,8.03
2019-02-12T15:50:08.596Z,9.80
2019-02-12T15:52:36.889Z,11.93
2019-02-12T15:55:08.646Z,13.60
2019-02-12T15:57:36.924Z,9.90
2019-02-12T16:00:20.655Z,11.57
2019-02-12T16:02:49.168Z,8.37
2019-02-12T16:05:17.465Z,8.57
2019-02-12T16:07:47.380Z,10.77
2019-02-12T16:10:19.666Z,9.43
2019-02-12T16:12:48.960Z,11.57
2019-02-12T16:15:21.524Z,12.07
2019-02-12T16:17:49.056Z,8.30
2019-02-12T16:20:17.596Z,11.57
2019-02-12T16:22:46.135Z,15.10
2019-02-12T16:25:15.464Z,9.90
2019-02-12T16:27:43.853Z,9.53
2019-02-12T16:30:16.976Z,13.27
2019-02-12T16:32:45.347Z,9.00
2019-02-12T16:35:15.371Z,12.83
2019-02-12T16:37:43.844Z,10.07
2019-02-12T16:40:13.865Z,12.60
2019-02-12T16:42:42.172Z,12.87
2019-02-12T16:45:22.573Z,9.20
2019-02-12T16:47:50.877Z,11.57
2019-02-12T16:50:19.157Z,10.07
2019-02-12T16:52:47.516Z,14.90
2019-02-12T16:55:15.947Z,13.60
2019-02-12T16:57:44.227Z,10.93
2019-02-12T17:00:17.349Z,14.67
2019-02-12T17:02:46.703Z,12.97
2019-02-12T17:05:15.580Z,14.33
2019-02-12T17:07:45.102Z,13.53
2019-02-12T17:10:13.737Z,14.87
2019-02-12T17:12:42.343Z,10.07
2019-02-12T17:15:12.520Z,16.00
2019-02-12T17:17:40.835Z,15.57
2019-02-12T17:20:21.476Z,15.07
2019-02-12T17:22:49.752Z,12.47
2019-02-12T17:25:18.116Z,14.50
2019-02-12T17:27:48.022Z,9.63
2019-02-12T17:30:18.315Z,14.40
2019-02-12T17:32:46.595Z,16.43
2019-02-12T17:35:14.897Z,15.13
2019-02-12T17:37:43.427Z,11.17
2019-02-12T17:40:18.760Z,13.90
2019-02-12T17:42:47.108Z,15.47
2019-02-12T17:45:16.954Z,12.27
2019-02-12T17:47:45.224Z,12.97
2019-02-12T17:50:15.234Z,14.77
2019-02-12T17:52:43.603Z,15.60
2019-02-12T17:55:12.061Z,11.47
2019-02-12T17:57:40.351Z,9.67
2019-02-12T18:00:17.794Z,9.40
2019-02-12T18:02:46.092Z,11.33
2019-02-12T18:05:14.710Z,11.37
2019-02-12T18:07:43.003Z,14.00
2019-02-12T18:10:12.124Z,10.23
2019-02-12T18:12:40.696Z,11.73
2019-02-12T18:15:12.131Z,12.63
2019-02-12T18:17:40.493Z,10.30
2019-02-12T18:20:11.226Z,13.33
2019-02-12T18:22:39.811Z,16.23
2019-02-12T18:25:11.748Z,15.27
2019-02-12T18:27:40.982Z,16.37
2019-02-12T18:30:12.149Z,12.93
2019-02-12T18:32:40.449Z,13.33
2019-02-12T18:35:09.197Z,19.00
2019-02-12T18:37:37.503Z,54.77
2019-02-12T18:40:09.092Z,21.10
2019-02-12T18:42:37.383Z,16.10
2019-02-12T18:45:08.850Z,14.37
2019-02-12T18:47:37.154Z,11.47
2019-02-12T18:50:08.890Z,11.23
2019-02-12T18:52:37.175Z,18.93
2019-02-12T18:55:08.310Z,13.83
2019-02-12T18:57:36.856Z,12.43
2019-02-12T19:00:08.592Z,15.93
2019-02-12T19:02:36.877Z,11.63
2019-02-12T19:05:07.115Z,21.13
2019-02-12T19:07:35.414Z,11.67
2019-02-12T19:10:04.674Z,13.93
2019-02-12T19:12:32.968Z,18.97
2019-02-12T19:15:01.266Z,12.53
2019-02-12T19:17:29.553Z,16.80
2019-02-12T19:19:58.277Z,20.10
2019-02-12T19:22:26.568Z,11.37
2019-02-12T19:24:54.874Z,13.93
2019-02-12T19:27:23.238Z,11.40
2019-02-12T19:29:51.507Z,13.47
2019-02-12T19:32:20.070Z,16.07
2019-02-12T19:34:49.108Z,13.80
2019-02-12T19:37:17.408Z,16.10
2019-02-12T19:39:45.698Z,16.30
2019-02-12T19:42:13.997Z,13.20
2019-02-12T19:44:42.302Z,15.83
2019-02-12T19:47:10.853Z,13.97
2019-02-12T19:49:39.141Z,13.90
2019-02-12T19:52:07.464Z,12.67
2019-02-12T19:54:35.766Z,17.27
2019-02-12T19:57:04.368Z,10.77
2019-02-12T19:59:32.658Z,12.37
2019-02-12T20:02:01.229Z,11.17
2019-02-12T20:04:29.511Z,16.07
2019-02-12T20:06:57.814Z,11.43
2019-02-12T20:09:27.034Z,13.63
2019-02-12T20:11:55.341Z,14.13
2019-02-12T20:14:23.631Z,16.93
2019-02-12T20:16:51.931Z,18.30
2019-02-12T20:19:20.220Z,18.57
2019-02-12T20:21:48.607Z,18.30
2019-02-12T20:24:16.901Z,15.77
2019-02-12T20:26:45.207Z,15.97
2019-02-12T20:29:13.496Z,18.23
2019-02-12T20:31:41.799Z,18.27
2019-02-12T20:34:10.085Z,18.17
2019-02-12T20:36:38.390Z,20.63
2019-02-12T20:39:06.844Z,15.53
2019-02-12T20:41:35.115Z,20.93
2019-02-12T20:44:03.668Z,13.40
2019-02-12T20:46:31.953Z,16.80
2019-02-12T20:49:00.244Z,13.60
2019-02-12T20:51:28.786Z,14.50
2019-02-12T20:53:57.080Z,18.47
2019-02-12T20:56:25.366Z,16.10
2019-02-12T20:58:53.658Z,18.40
2019-02-12T21:01:21.955Z,22.17
2019-02-12T21:03:50.495Z,23.00
2019-02-12T21:06:19.038Z,14.47
2019-02-12T21:08:47.338Z,13.73
2019-02-12T21:11:15.878Z,17.43
2019-02-12T21:13:44.204Z,15.43
2019-02-12T21:16:12.490Z,20.63
2019-02-12T21:18:40.772Z,18.47
2019-02-12T21:21:09.079Z,16.43
2019-02-12T21:23:37.363Z,15.27
2019-02-12T21:26:05.908Z,18.80
2019-02-12T21:28:34.211Z,13.57
2019-02-12T21:31:02.586Z,16.97
2019-02-12T21:33:30.927Z,14.53
2019-02-12T21:35:59.724Z,18.33
2019-02-12T21:38:28.105Z,21.73
2019-02-12T21:40:56.395Z,16.80
2019-02-12T21:43:24.692Z,20.60
2019-02-12T21:45:53.221Z,21.23
2019-02-12T21:48:21.559Z,17.70
2019-02-12T21:50:49.855Z,15.27
2019-02-12T21:53:18.400Z,17.37
2019-02-12T21:55:46.937Z,15.57
2019-02-12T21:58:15.236Z,16.40
2019-02-12T22:00:43.514Z,14.70
2019-02-12T22:03:12.078Z,13.07
2019-02-12T22:05:40.603Z,15.73
2019-02-12T22:08:08.915Z,16.20
2019-02-12T22:10:37.207Z,17.40
2019-02-12T22:13:05.778Z,19.93
2019-02-12T22:15:34.309Z,22.03
2019-02-12T22:18:02.590Z,24.30
2019-02-12T22:20:31.149Z,20.47
2019-02-12T22:22:59.487Z,20.07
2019-02-12T22:25:28.027Z,23.53
2019-02-12T22:27:57.191Z,17.83
2019-02-12T22:30:26.353Z,14.30
2019-02-12T22:32:54.648Z,12.80
2019-02-12T22:35:22.950Z,14.40
2019-02-12T22:37:51.240Z,14.70
2019-02-12T22:40:19.529Z,13.57
2019-02-12T22:42:48.073Z,12.27
2019-02-12T22:45:21.423Z,15.00
2019-02-12T22:47:49.706Z,10.33
2019-02-12T22:50:18.002Z,13.30
2019-02-12T22:52:46.306Z,11.80
2019-02-12T22:55:14.578Z,11.93
2019-02-12T22:57:48.909Z,11.63
2019-02-12T23:00:34.009Z,11.13
2019-02-12T23:03:02.296Z,14.57
2019-02-12T23:05:30.831Z,13.53
2019-02-12T23:07:59.129Z,8.03
2019-02-12T23:10:27.411Z,15.03
2019-02-12T23:12:55.715Z,15.00
2019-02-12T23:15:24.000Z,12.10
2019-02-12T23:17:52.303Z,13.67
2019-02-12T23:20:20.576Z,12.90
2019-02-12T23:22:48.891Z,13.53
2019-02-12T23:25:17.174Z,12.43
2019-02-12T23:27:45.750Z,13.60
2019-02-12T23:30:14.104Z,11.10
2019-02-12T23:32:42.380Z,10.90
2019-02-12T23:35:10.675Z,12.83
2019-02-12T23:37:39.226Z,10.40
2019-02-12T23:40:08.596Z,12.97
2019-02-12T23:42:36.875Z,8.03
2019-02-12T23:45:07.253Z,11.57
2019-02-12T23:47:35.543Z,11.10
2019-02-12T23:50:05.650Z,11.43
2019-02-12T23:52:33.937Z,10.57
2019-02-12T23:55:02.494Z,9.47
2019-02-12T23:57:30.769Z,11.67
2019-02-12T23:59:59.073Z,10.47
